Terminal Aerodrome Forecast
Issued by NWS Bismarck, ND

Home | Current Version | Previous Version | Text Only | Print | Product List | Glossary Off
Versions: 1 2 3 4 5 6 7 8 9 10 11 12 13 14 15 16 17 18 19 20 21 22 23 24

000
FTUS43 KBIS 210500
TAFISN
TAF
KISN 210530Z 2106/2206 20005KT P6SM SKC
     FM211500 16006KT P6SM SCT035 BKN080
     FM211800 16008KT P6SM VCSH BKN035 OVC050
     FM220300 02008KT P6SM -SN BKN025 OVC035=

USA.gov is the U.S. government's official web portal to all federal, state and local government web resources and services.